Saint Eustatius, St. Eustatius

11:36 AM AST on July 24, 2016 (GMT -0400)
IDUTCHCA4 | | Change Station

Elev 575 ft 17.48 °N, 62.97 °W | Updated 16 seconds ago

Scattered Clouds
Scattered Clouds
82.9 °F
Feels Like 91 °F
N
2.0
Wind Variable Wind from WNW

Today
High -- | Low -- °F
--% Chance of Precip.
Yesterday
High -- | Low -- °F
Precip. -- in
Pressure 30.04 in
Visibility 6.2 miles
Clouds Few 1400 ft
Scattered Clouds 4500 ft
Heat Index 91 °F
Dew Point 77 °F
Humidity 81%
Rainfall 0.30 in
Snow Depth Not available.
5:48 AM 6:47 PM
Waning Gibbous, 75% visible
METAR TKPK 241500Z 07006KT 9999 FEW014CB SCT045 29/25 Q1017
Pressure 30.04 in
Visibility 6.2 miles
Clouds Few 1400 ft
Scattered Clouds 4500 ft
Heat Index 91 °F
Dew Point 77 °F
Humidity 81%
Rainfall 0.30 in
Snow Depth Not available.
5:48 AM 6:47 PM
Waning Gibbous, 75% visible
METAR TKPK 241500Z 07006KT 9999 FEW014CB SCT045 29/25 Q1017

10-Day Weather Forecast

No radar image for this location.
×

Almanac

Astronomy

Jul. 24, 2016 Rise Set
Actual Time
Civil Twilight
Nautical Twilight
Astronomical Twilight
Moon
Length of Visible Light
Length of Day
Tomorrow will be .
, % of the Moon is Illuminated

Today's Extremes

Country Highs Country Lows

Community

WunderPhotos

Upload Photos

1,927,092 photos uploaded!

WunderBlog® & News

Nearby

Air Quality

  Air Quality AQ Index Pollutant
Not available.

Snow Depth

Station Depth Elevation

Earthquake Activity

City Distance Mag. Time & Date
Minimum magnitude displayed is 2.5.

Coastal Water Temperatures

Place Temperature

Stations

Nearby Weather Stations

Station Location Temp. Windchill Dew Point Humidity Wind Precip. Elev Updated Type